createdAt,value
2019-02-08T00:02:16.330Z,3.80
2019-02-08T00:04:45.392Z,3.90
2019-02-08T00:07:14.331Z,4.30
2019-02-08T00:09:53.252Z,4.60
2019-02-08T00:12:21.894Z,4.40
2019-02-08T00:14:50.533Z,4.00
2019-02-08T00:17:19.175Z,4.20
2019-02-08T00:19:56.730Z,4.60
2019-02-08T00:22:28.484Z,4.90
2019-02-08T00:24:57.229Z,5.20
2019-02-08T00:27:28.508Z,5.30
2019-02-08T00:30:09.396Z,5.30
2019-02-08T00:32:38.452Z,5.30
2019-02-08T00:35:07.145Z,5.10
2019-02-08T00:37:35.856Z,5.00
2019-02-08T00:40:14.318Z,5.00
2019-02-08T00:42:43.221Z,5.00
2019-02-08T00:45:13.828Z,5.00
2019-02-08T00:47:42.672Z,4.90
2019-02-08T00:50:15.675Z,4.70
2019-02-08T00:52:44.371Z,4.50
2019-02-08T00:55:13.104Z,4.60
2019-02-08T00:57:41.736Z,4.40
2019-02-08T01:00:19.357Z,4.30
2019-02-08T01:02:50.602Z,4.30
2019-02-08T01:05:19.562Z,4.40
2019-02-08T01:07:51.045Z,4.60
2019-02-08T01:10:32.294Z,4.80
2019-02-08T01:13:01.647Z,5.00
2019-02-08T01:15:30.552Z,5.10
2019-02-08T01:17:59.183Z,5.20
2019-02-08T01:20:36.954Z,5.30
2019-02-08T01:23:05.589Z,5.30
2019-02-08T01:25:34.580Z,5.40
2019-02-08T01:28:03.528Z,5.40
2019-02-08T01:30:41.669Z,5.40
2019-02-08T01:33:10.445Z,5.30
2019-02-08T01:35:39.359Z,5.30
2019-02-08T01:38:09.309Z,5.20
2019-02-08T01:40:47.045Z,5.10
2019-02-08T01:43:17.721Z,5.00
2019-02-08T01:45:46.462Z,5.00
2019-02-08T01:48:15.193Z,4.90
2019-02-08T01:50:54.664Z,4.80
2019-02-08T01:53:23.359Z,4.50
2019-02-08T01:55:52.052Z,4.30
2019-02-08T01:58:20.778Z,4.20
2019-02-08T02:00:58.657Z,4.00
2019-02-08T02:03:27.344Z,4.10
2019-02-08T02:05:56.131Z,3.90
2019-02-08T02:08:24.938Z,3.80
2019-02-08T02:11:05.783Z,4.00
2019-02-08T02:13:34.518Z,4.00
2019-02-08T02:16:07.814Z,4.00
2019-02-08T02:18:36.478Z,4.20
2019-02-08T02:21:14.543Z,4.40
2019-02-08T02:23:43.210Z,4.40
2019-02-08T02:26:11.880Z,4.50
2019-02-08T02:28:42.654Z,4.60
2019-02-08T02:31:20.421Z,4.60
2019-02-08T02:33:49.210Z,4.70
2019-02-08T02:36:20.704Z,4.80
2019-02-08T02:38:49.391Z,4.90
2019-02-08T02:41:27.356Z,5.00
2019-02-08T02:43:57.915Z,5.00
2019-02-08T02:46:26.613Z,4.70
2019-02-08T02:48:55.714Z,4.50
2019-02-08T02:54:07.948Z,4.20
2019-02-08T02:56:36.707Z,4.10
2019-02-08T02:59:05.861Z,4.10
2019-02-08T03:01:47.438Z,4.10
2019-02-08T03:04:16.363Z,4.10
2019-02-08T03:06:45.646Z,4.20
2019-02-08T03:09:14.586Z,4.10
2019-02-08T03:11:52.333Z,4.30
2019-02-08T03:14:21.147Z,4.40
2019-02-08T03:16:49.814Z,4.60
2019-02-08T03:19:18.880Z,4.50
2019-02-08T03:21:56.791Z,4.50
2019-02-08T03:24:25.716Z,4.50
2019-02-08T03:26:57.457Z,4.30
2019-02-08T03:29:28.189Z,4.10
2019-02-08T03:32:05.804Z,4.10
2019-02-08T03:34:34.736Z,4.20
2019-02-08T03:37:06.303Z,4.10
2019-02-08T03:39:34.946Z,4.10
2019-02-08T03:42:03.819Z,4.10
2019-02-08T03:44:35.743Z,4.40
2019-02-08T03:47:04.521Z,4.60
2019-02-08T03:49:36.120Z,4.70
2019-02-08T03:52:14.091Z,4.70
2019-02-08T03:54:42.903Z,4.70
2019-02-08T03:57:11.673Z,4.70
2019-02-08T03:59:41.610Z,4.80
2019-02-08T04:02:19.640Z,4.90
2019-02-08T04:04:48.580Z,5.00
2019-02-08T04:07:20.681Z,5.20
2019-02-08T04:09:49.356Z,5.30
2019-02-08T04:12:27.433Z,5.40
2019-02-08T04:14:56.422Z,5.60
2019-02-08T04:17:25.326Z,5.60
2019-02-08T04:19:56.644Z,5.60
2019-02-08T04:22:34.511Z,5.70
2019-02-08T04:25:03.458Z,5.70
2019-02-08T04:27:34.463Z,5.70
2019-02-08T04:30:05.989Z,5.70
2019-02-08T04:32:43.727Z,5.80
2019-02-08T04:35:12.375Z,5.80
2019-02-08T04:37:41.319Z,5.80
2019-02-08T04:40:12.714Z,5.60
2019-02-08T04:42:41.764Z,5.50
2019-02-08T04:45:10.607Z,5.50
2019-02-08T04:47:39.678Z,5.30
2019-02-08T04:50:10.273Z,5.30
2019-02-08T04:52:48.414Z,5.20
2019-02-08T04:55:19.559Z,5.20
2019-02-08T04:57:48.638Z,5.20
2019-02-08T05:00:34.613Z,5.30
2019-02-08T05:03:12.391Z,5.40
2019-02-08T05:05:41.169Z,5.50
2019-02-08T05:08:12.717Z,5.70
2019-02-08T05:10:41.388Z,5.80
2019-02-08T05:13:19.189Z,5.80
2019-02-08T05:15:51.114Z,5.90
2019-02-08T05:18:19.842Z,5.80
2019-02-08T05:20:48.617Z,5.70
2019-02-08T05:23:26.721Z,5.60
2019-02-08T05:25:55.595Z,5.70
2019-02-08T05:28:25.545Z,5.80
2019-02-08T05:30:54.525Z,5.80
2019-02-08T05:33:36.030Z,5.90
2019-02-08T05:36:04.808Z,6.00
2019-02-08T05:38:33.523Z,5.90
2019-02-08T05:41:05.465Z,5.90
2019-02-08T05:43:34.286Z,5.70
2019-02-08T05:46:06.525Z,5.70
2019-02-08T05:48:35.291Z,5.50
2019-02-08T05:51:04.012Z,5.50
2019-02-08T05:53:42.086Z,5.60
2019-02-08T05:56:10.796Z,5.50
2019-02-08T05:58:41.099Z,5.50
2019-02-08T06:01:12.842Z,5.30
2019-02-08T06:03:50.842Z,5.40
2019-02-08T06:06:32.037Z,5.50
2019-02-08T06:09:03.384Z,5.60
2019-02-08T06:11:33.005Z,5.60
2019-02-08T06:16:48.913Z,5.50
2019-02-08T06:19:17.673Z,5.60
2019-02-08T06:21:46.399Z,5.80
2019-02-08T06:24:25.479Z,5.90
2019-02-08T06:26:57.718Z,5.90
2019-02-08T06:29:29.377Z,6.00
2019-02-08T06:31:58.046Z,6.20
2019-02-08T06:37:10.515Z,6.30
2019-02-08T06:39:39.301Z,6.40
2019-02-08T06:42:11.455Z,6.40
2019-02-08T06:47:29.863Z,6.50
2019-02-08T06:49:58.673Z,6.50
2019-02-08T06:52:27.530Z,6.50
2019-02-08T06:55:10.805Z,6.40
2019-02-08T06:57:50.417Z,6.40
2019-02-08T07:00:44.622Z,6.40
2019-02-08T07:03:33.060Z,6.50
2019-02-08T07:06:19.921Z,6.50
2019-02-08T07:09:06.810Z,6.50
2019-02-08T07:11:42.195Z,6.60
2019-02-08T07:14:44.573Z,6.70
2019-02-08T07:17:26.750Z,6.90
2019-02-08T07:20:26.749Z,6.80
2019-02-08T07:23:15.452Z,6.60
2019-02-08T07:28:50.881Z,6.50
2019-02-08T07:31:39.734Z,6.60
2019-02-08T07:34:27.076Z,6.70
2019-02-08T07:37:23.797Z,6.90
2019-02-08T07:40:12.838Z,7.00
2019-02-08T07:42:52.540Z,7.10
2019-02-08T07:45:39.940Z,7.20
2019-02-08T07:48:31.632Z,7.40
2019-02-08T07:51:06.680Z,7.60
2019-02-08T07:53:48.601Z,7.90
2019-02-08T07:59:29.942Z,8.50
2019-02-08T08:02:10.291Z,8.80
2019-02-08T08:05:07.212Z,9.50
2019-02-08T08:08:07.213Z,10.70
2019-02-08T08:10:45.135Z,11.90
2019-02-08T08:13:27.237Z,13.10
2019-02-08T08:16:08.531Z,13.60
2019-02-08T08:18:53.045Z,14.40
2019-02-08T08:21:42.208Z,15.30
2019-02-08T08:24:19.217Z,16.10
2019-02-08T08:27:14.332Z,16.50
2019-02-08T08:30:09.173Z,17.00
2019-02-08T08:32:52.486Z,17.60
2019-02-08T08:35:32.968Z,18.20
2019-02-08T08:41:39.361Z,18.50
2019-02-08T08:44:55.707Z,18.60
2019-02-08T08:47:57.136Z,18.00
2019-02-08T08:50:56.463Z,17.50
2019-02-08T08:53:40.971Z,17.30
2019-02-08T08:59:53.739Z,18.20
2019-02-08T09:03:02.623Z,18.20
2019-02-08T09:06:10.282Z,18.30
2019-02-08T09:09:23.437Z,17.90
2019-02-08T09:12:31.088Z,18.70
2019-02-08T09:15:50.299Z,18.90
2019-02-08T09:21:43.979Z,20.00
2019-02-08T09:25:08.190Z,19.50
2019-02-08T09:31:12.724Z,20.70
2019-02-08T09:34:20.568Z,21.10
2019-02-08T09:40:55.613Z,21.60
2019-02-08T09:44:00.597Z,23.10
2019-02-08T09:50:10.630Z,23.30
2019-02-08T09:53:21.792Z,23.40
2019-02-08T09:56:35.424Z,23.30
2019-02-08T09:59:45.349Z,23.10
2019-02-08T10:02:48.344Z,23.70
2019-02-08T10:05:55.227Z,23.70
2019-02-08T10:09:00.010Z,23.70
2019-02-08T10:12:18.548Z,25.00
2019-02-08T10:15:16.218Z,26.50
2019-02-08T10:21:33.998Z,26.90
2019-02-08T10:24:47.325Z,26.20
2019-02-08T10:28:15.559Z,26.20
2019-02-08T10:31:20.337Z,27.40
2019-02-08T10:34:12.935Z,28.90
2019-02-08T10:37:05.991Z,30.00
2019-02-08T10:39:57.751Z,28.30
2019-02-08T10:43:08.506Z,26.10
2019-02-08T10:46:07.392Z,25.30
2019-02-08T10:49:29.833Z,26.20
2019-02-08T10:52:49.144Z,26.90
2019-02-08T10:56:15.007Z,27.60
2019-02-08T10:59:18.577Z,28.30
2019-02-08T11:02:40.892Z,29.30
2019-02-08T11:06:14.237Z,29.60
2019-02-08T11:12:27.363Z,26.10
2019-02-08T11:15:19.860Z,26.70
2019-02-08T11:18:39.303Z,27.10
2019-02-08T11:21:14.706Z,27.00
2019-02-08T11:23:48.818Z,26.90
2019-02-08T11:26:22.504Z,26.20
2019-02-08T11:28:57.470Z,25.80
2019-02-08T11:31:26.374Z,25.20
2019-02-08T11:33:55.121Z,25.10
2019-02-08T11:36:23.836Z,25.30
2019-02-08T11:41:35.683Z,24.60
2019-02-08T11:44:04.368Z,24.60
2019-02-08T11:46:33.013Z,24.60
2019-02-08T11:49:10.989Z,25.00
2019-02-08T11:51:42.996Z,26.10
2019-02-08T11:54:11.694Z,27.50
2019-02-08T11:56:40.793Z,28.00
2019-02-08T11:59:18.700Z,29.10
2019-02-08T12:01:49.187Z,29.80
2019-02-08T12:04:20.146Z,30.50
2019-02-08T12:06:49.127Z,30.00
2019-02-08T12:12:02.316Z,28.10
2019-02-08T12:14:31.247Z,28.10
2019-02-08T12:17:00.542Z,27.10
2019-02-08T12:19:38.271Z,26.00
2019-02-08T12:22:07.301Z,26.20
2019-02-08T12:24:36.034Z,27.40
2019-02-08T12:27:04.772Z,28.30
2019-02-08T12:29:42.806Z,28.40
2019-02-08T12:32:11.744Z,28.20
2019-02-08T12:34:40.809Z,28.60
2019-02-08T12:37:10.433Z,29.10
2019-02-08T12:39:50.704Z,28.20
2019-02-08T12:42:19.831Z,26.60
2019-02-08T12:44:48.840Z,26.50
2019-02-08T12:47:20.136Z,27.10
2019-02-08T12:49:59.358Z,26.90
2019-02-08T12:52:28.268Z,26.00
2019-02-08T12:54:57.016Z,25.10
2019-02-08T12:57:25.845Z,25.20
2019-02-08T13:00:05.180Z,25.90
2019-02-08T13:02:34.116Z,26.60
2019-02-08T13:05:04.505Z,25.90
2019-02-08T13:07:33.268Z,25.40
2019-02-08T13:12:49.685Z,25.70
2019-02-08T13:15:19.432Z,24.50
2019-02-08T13:17:48.275Z,24.70
2019-02-08T13:20:26.392Z,24.40
2019-02-08T13:22:55.178Z,23.30
2019-02-08T13:25:25.139Z,21.80
2019-02-08T13:27:54.539Z,19.30
2019-02-08T13:30:35.531Z,16.60
2019-02-08T13:33:07.312Z,14.80
2019-02-08T13:35:36.190Z,13.60
2019-02-08T13:38:04.855Z,13.40
2019-02-08T13:40:42.909Z,12.90
2019-02-08T13:43:14.919Z,12.80
2019-02-08T13:45:43.986Z,12.70
2019-02-08T13:48:12.719Z,12.80
2019-02-08T13:50:50.638Z,13.00
2019-02-08T13:53:19.557Z,12.90
2019-02-08T13:55:51.254Z,12.80
2019-02-08T13:58:20.176Z,12.70
2019-02-08T14:00:58.299Z,12.40
2019-02-08T14:03:27.197Z,12.70
2019-02-08T14:05:57.027Z,12.60
2019-02-08T14:08:26.930Z,12.30
2019-02-08T14:11:07.948Z,12.60
2019-02-08T14:13:42.841Z,12.70
2019-02-08T14:16:11.841Z,12.80
2019-02-08T14:18:40.753Z,12.40
2019-02-08T14:21:21.608Z,11.70
2019-02-08T14:23:50.526Z,11.30
2019-02-08T14:26:19.399Z,11.40
2019-02-08T14:28:50.769Z,11.00
2019-02-08T14:31:32.031Z,10.90
2019-02-08T14:34:00.914Z,10.80
2019-02-08T14:36:29.820Z,10.70
2019-02-08T14:38:58.487Z,10.70
2019-02-08T14:41:36.480Z,10.80
2019-02-08T14:44:05.232Z,10.90
2019-02-08T14:46:34.227Z,10.70
2019-02-08T14:49:03.125Z,10.50
2019-02-08T14:51:41.100Z,10.50
2019-02-08T14:54:09.995Z,10.40
2019-02-08T14:56:39.160Z,10.40
2019-02-08T14:59:07.936Z,10.10
2019-02-08T15:01:46.153Z,10.10
2019-02-08T15:04:14.942Z,10.00
2019-02-08T15:06:44.783Z,9.70
2019-02-08T15:09:13.462Z,9.50
2019-02-08T15:11:51.201Z,9.80
2019-02-08T15:14:20.472Z,10.10
2019-02-08T15:16:49.211Z,10.10
2019-02-08T15:19:18.014Z,9.90
2019-02-08T15:21:56.328Z,10.00
2019-02-08T15:24:25.338Z,9.80
2019-02-08T15:26:54.058Z,9.50
2019-02-08T15:29:22.796Z,9.70
2019-02-08T15:32:00.465Z,10.00
2019-02-08T15:34:29.232Z,10.00
2019-02-08T15:36:57.911Z,10.00
2019-02-08T15:39:26.828Z,9.60
2019-02-08T15:44:39.180Z,9.70
2019-02-08T15:47:10.386Z,9.90
2019-02-08T15:49:39.226Z,9.50
2019-02-08T15:52:17.331Z,9.60
2019-02-08T15:54:47.109Z,9.60
2019-02-08T15:57:18.939Z,9.60
2019-02-08T15:59:47.748Z,9.80
2019-02-08T16:02:27.750Z,9.60
2019-02-08T16:04:58.570Z,9.50
2019-02-08T16:07:27.272Z,9.50
2019-02-08T16:09:59.137Z,9.80
2019-02-08T16:12:36.700Z,10.00
2019-02-08T16:15:06.757Z,9.90
2019-02-08T16:17:36.632Z,9.80
2019-02-08T16:20:05.966Z,9.80
2019-02-08T16:22:45.908Z,9.80
2019-02-08T16:25:16.314Z,9.80
2019-02-08T16:27:45.101Z,9.80
2019-02-08T16:30:16.524Z,9.80
2019-02-08T16:32:54.350Z,9.60
2019-02-08T16:35:23.281Z,9.50
2019-02-08T16:37:52.004Z,9.50
2019-02-08T16:40:22.513Z,9.50
2019-02-08T16:45:35.090Z,9.50
2019-02-08T16:48:04.921Z,9.50
2019-02-08T16:50:33.910Z,9.50
2019-02-08T16:53:12.801Z,9.50
2019-02-08T16:55:47.966Z,9.50
2019-02-08T16:58:17.710Z,9.40
2019-02-08T17:00:46.382Z,9.20
2019-02-08T17:03:24.485Z,8.90
2019-02-08T17:05:53.239Z,8.90
2019-02-08T17:08:21.994Z,9.00
2019-02-08T17:10:50.727Z,9.00
2019-02-08T17:13:22.516Z,8.90
2019-02-08T17:15:51.209Z,8.90
2019-02-08T17:18:20.041Z,8.90
2019-02-08T17:20:50.156Z,9.00
2019-02-08T17:23:28.022Z,9.00
2019-02-08T17:25:59.924Z,9.00
2019-02-08T17:28:28.679Z,9.00
2019-02-08T17:30:57.384Z,8.90
2019-02-08T17:36:19.177Z,8.60
2019-02-08T17:38:49.094Z,8.70
2019-02-08T17:41:19.626Z,8.70
2019-02-08T17:43:48.448Z,8.60
2019-02-08T17:46:26.464Z,8.30
2019-02-08T17:48:55.412Z,8.20
2019-02-08T17:51:24.210Z,8.20
2019-02-08T17:53:53.199Z,8.30
2019-02-08T17:59:05.185Z,8.40
2019-02-08T18:01:34.126Z,8.40
2019-02-08T18:04:06.009Z,8.30
2019-02-08T18:06:44.037Z,8.40
2019-02-08T18:09:12.961Z,8.40
2019-02-08T18:11:42.063Z,8.40
2019-02-08T18:14:11.791Z,8.40
2019-02-08T18:16:49.537Z,8.30
2019-02-08T18:19:18.253Z,8.30
2019-02-08T18:21:46.941Z,8.00
2019-02-08T18:24:15.615Z,8.00
2019-02-08T18:26:53.558Z,8.00
2019-02-08T18:29:22.614Z,7.90
2019-02-08T18:31:51.282Z,7.90
2019-02-08T18:34:20.101Z,8.00
2019-02-08T18:39:32.283Z,8.30
2019-02-08T18:42:03.201Z,8.20
2019-02-08T18:44:31.866Z,8.30
2019-02-08T18:47:10.277Z,8.20
2019-02-08T18:49:39.074Z,8.20
2019-02-08T18:52:07.950Z,8.20
2019-02-08T18:54:36.595Z,8.00
2019-02-08T18:57:14.445Z,7.80
2019-02-08T18:59:43.181Z,7.80
2019-02-08T19:02:14.866Z,7.70
2019-02-08T19:04:43.677Z,7.50
2019-02-08T19:07:21.325Z,7.50
2019-02-08T19:09:50.285Z,7.60
2019-02-08T19:12:18.994Z,7.60
2019-02-08T19:14:50.958Z,7.70
2019-02-08T19:17:28.681Z,7.80
2019-02-08T19:19:57.346Z,7.60
2019-02-08T19:22:26.462Z,7.60
2019-02-08T19:24:57.603Z,7.60
2019-02-08T19:30:13.734Z,7.60
2019-02-08T19:32:42.399Z,7.50
2019-02-08T19:35:11.366Z,7.60
2019-02-08T19:40:31.837Z,7.70
